Decoded Metar for KARA (LOUISIANA in LA, USA) (IATA:ARA) | Meteo·Mobile Aviation Weather
aviador You're here:

KARA Decoded Metar

LOUISIANA in LA, USA
Report Time2019-01-23 06:53:00
UTC Time2019-01-23 07:24:05
Flight Rules vfr VFR
Wind130° at 09 kt
W.Decomp.*RWY 16: 7.5 kt HW 4.9 kt LCW
W.Rank130° ranks 11
Current wind is above 130° avg. (6.2)
Visibility9999 m
Phenomena:N/A
Clouds:Overcast 070 Hf
Expected CloudBase > 1,200 ft AGL from Temp-Dew spread
Ceiling7,000 ft
Temp18°C (ISA +3)
Dew Point15°C (83% RH)
AAT16.4°C
QNH1016 hPa
Density Alt551 ft
Elevation59 ft
Report Wrong Elevation
Raw Report
KARA 230653Z AUTO 13009KT 10SM OVC070 18/15 A2999 RMK AO2 SLP154
T01830150=

Extra information for KARA:More info

Metar Taf Metar & Taf Last 4 Metars F.Rules Stats Wind Profile Meteogram Temp Stats Airport Information Weather charts Add Link Nearby VenuesMetar ALERT Operation Metar Decoded Social comments

AIRNAV info for KARA